Nearby METAR Reports

 

KMLP - Mullan Pass
Updated: Sat, 23-Mar-2019 1:13pm PDT
Mostly Cloudy
Mostly Cloudy
 Wind from varies
Wind: varies 3 mph , 6 km/h
Temperature: 41°F , 5°C
Dew Point: 28°F , -2°C
Humidity: 61%
Barometer: 30.06 inHg , 1017.9 hPa
Clouds: Mostly Cloudy
Visibility: 10 miles , 16 km
Cloud details: Partly Cloudy 1700 ft
Mostly Cloudy 3100 ft
2019/03/23 20:13 KMLP 232013Z AUTO VRB03KT 10SM SCT017 BKN031 05/M02 A3006 RMK AO2 T00501022
KCOE - Coeur d Alene
Updated: Sat, 23-Mar-2019 12:56pm PDT
Clear
Clear
 Wind from S
Wind: S 6 mph , 9 km/h
Temperature: 52°F , 11°C
Dew Point: 39°F , 4°C
Humidity: 62%
Barometer: 30.11 inHg , 1019.6 hPa
Clouds: Clear
Visibility: 10 miles , 16 km
2019/03/23 19:56 KCOE 231956Z AUTO 19005KT 10SM CLR 11/04 A3011 RMK AO2 SLP221 T01110039
 
KLWS - Lewiston
Updated: Sat, 23-Mar-2019 12:56pm PDT
Overcast
Overcast
 Wind from NW
Wind: NW 3 mph , 6 km/h
Temperature: 55°F , 13°C
Dew Point: 43°F , 6°C
Humidity: 63%
Barometer: 30.10 inHg , 1019.3 hPa
Clouds: Overcast
Visibility: 10 miles , 16 km
Cloud details: Overcast 11000 ft
2019/03/23 19:56 KLWS 231956Z 31003KT 10SM OVC110 13/06 A3010 RMK AO2 SLP196 T01330056
KGEG - Spokane Intl
Updated: Sat, 23-Mar-2019 12:53pm PDT
Mostly Cloudy
Mostly Cloudy
 Wind from WSW
Wind: WSW 6 mph , 9 km/h
Temperature: 52°F , 11°C
Dew Point: 36°F , 2°C
Humidity: 54%
Barometer: 30.10 inHg , 1019.3 hPa
Clouds: Mostly Cloudy
Visibility: 10 miles , 16 km
Cloud details: Few Clouds 3500 ft
Few Clouds 8000 ft
Mostly Cloudy 24000 ft
2019/03/23 19:53 KGEG 231953Z 24005KT 10SM FEW035 FEW080 BKN240 11/02 A3010 RMK AO2 SLP196 T01060022